<?xml version="1.0" encoding="UTF-8" standalone="no" ?>
<gpx xmlns="http://www.topografix.com/GPX/1/1" xmlns:xsi="http://www.w3.org/2001/XMLSchema-instance" xsi:schemaLocation="http://www.topografix.com/GPX/1/1 http://www.topografix.com/GPX/1/1/gpx.xsd" version="1.1" creator="VisuGPX - https://www.visugpx.com">
  <metadata>
    <name>Enchainement Tunnel du Mortier</name>
    <desc><![CDATA[VTT]]></desc>
  </metadata>
  <trk>
    <name><![CDATA[Mortier total]]></name>
    <trkseg>
      <trkpt lat="45.17496" lon="5.54222">
        <ele>971.7</ele>
        <time>2016-09-29T06:19:51.000Z</time>
      </trkpt>
      <trkpt lat="45.17546" lon="5.54305">
        <ele>1037.8</ele>
        <time>2016-09-29T06:20:12.000Z</time>
      </trkpt>
      <trkpt lat="45.17563" lon="5.54356">
        <ele>1037.1</ele>
        <time>2016-09-29T06:20:21.000Z</time>
      </trkpt>
      <trkpt lat="45.17619" lon="5.54446">
        <ele>1043.7</ele>
        <time>2016-09-29T06:20:40.000Z</time>
      </trkpt>
      <trkpt lat="45.17641" lon="5.5455">
        <ele>1053.5</ele>
        <time>2016-09-29T06:20:58.000Z</time>
      </trkpt>
      <trkpt lat="45.17689" lon="5.54678">
        <ele>1058.2</ele>
        <time>2016-09-29T06:21:22.000Z</time>
      </trkpt>
      <trkpt lat="45.17709" lon="5.54794">
        <ele>1065.9</ele>
        <time>2016-09-29T06:21:43.000Z</time>
      </trkpt>
      <trkpt lat="45.1774" lon="5.54875">
        <ele>1074.1</ele>
        <time>2016-09-29T06:22:01.000Z</time>
      </trkpt>
      <trkpt lat="45.17817" lon="5.55042">
        <ele>1091.2</ele>
        <time>2016-09-29T06:22:40.000Z</time>
      </trkpt>
      <trkpt lat="45.17854" lon="5.55092">
        <ele>1095.6</ele>
        <time>2016-09-29T06:22:52.000Z</time>
      </trkpt>
      <trkpt lat="45.17887" lon="5.55204">
        <ele>1102.2</ele>
        <time>2016-09-29T06:23:13.000Z</time>
      </trkpt>
      <trkpt lat="45.17934" lon="5.55328">
        <ele>1105.8</ele>
        <time>2016-09-29T06:23:37.000Z</time>
      </trkpt>
      <trkpt lat="45.18009" lon="5.55441">
        <ele>1105.5</ele>
        <time>2016-09-29T06:24:04.000Z</time>
      </trkpt>
      <trkpt lat="45.18095" lon="5.556">
        <ele>1106.7</ele>
        <time>2016-09-29T06:24:40.000Z</time>
      </trkpt>
      <trkpt lat="45.18125" lon="5.55668">
        <ele>1111</ele>
        <time>2016-09-29T06:24:55.000Z</time>
      </trkpt>
      <trkpt lat="45.18168" lon="5.55734">
        <ele>1116</ele>
        <time>2016-09-29T06:25:10.000Z</time>
      </trkpt>
      <trkpt lat="45.1824" lon="5.55803">
        <ele>1121.7</ele>
        <time>2016-09-29T06:25:34.000Z</time>
      </trkpt>
      <trkpt lat="45.18343" lon="5.55856">
        <ele>1129.8</ele>
        <time>2016-09-29T06:26:01.000Z</time>
      </trkpt>
      <trkpt lat="45.18483" lon="5.56029">
        <ele>1127.6</ele>
        <time>2016-09-29T06:26:43.000Z</time>
      </trkpt>
      <trkpt lat="45.18521" lon="5.56098">
        <ele>1121.1</ele>
        <time>2016-09-29T06:26:58.000Z</time>
      </trkpt>
      <trkpt lat="45.18559" lon="5.56145">
        <ele>1106.7</ele>
        <time>2016-09-29T06:27:10.000Z</time>
      </trkpt>
      <trkpt lat="45.18626" lon="5.56193">
        <ele>1091.3</ele>
        <time>2016-09-29T06:27:28.000Z</time>
      </trkpt>
      <trkpt lat="45.1877" lon="5.56218">
        <ele>1086.8</ele>
        <time>2016-09-29T06:27:58.000Z</time>
      </trkpt>
      <trkpt lat="45.18878" lon="5.5631">
        <ele>1086.5</ele>
        <time>2016-09-29T06:28:22.000Z</time>
      </trkpt>
      <trkpt lat="45.18905" lon="5.56324">
        <ele>1091.7</ele>
        <time>2016-09-29T06:28:28.000Z</time>
      </trkpt>
      <trkpt lat="45.1899" lon="5.56337">
        <ele>1094.3</ele>
        <time>2016-09-29T06:28:46.000Z</time>
      </trkpt>
      <trkpt lat="45.19128" lon="5.56442">
        <ele>1096.7</ele>
        <time>2016-09-29T06:29:19.000Z</time>
      </trkpt>
      <trkpt lat="45.19239" lon="5.56497">
        <ele>1097</ele>
        <time>2016-09-29T06:29:43.000Z</time>
      </trkpt>
      <trkpt lat="45.19318" lon="5.56553">
        <ele>1100.1</ele>
        <time>2016-09-29T06:30:04.000Z</time>
      </trkpt>
      <trkpt lat="45.19436" lon="5.56659">
        <ele>1104.4</ele>
        <time>2016-09-29T06:30:40.000Z</time>
      </trkpt>
      <trkpt lat="45.19501" lon="5.56706">
        <ele>1106.2</ele>
        <time>2016-09-29T06:30:59.000Z</time>
      </trkpt>
      <trkpt lat="45.1959" lon="5.5681">
        <ele>1110.9</ele>
        <time>2016-09-29T06:31:26.000Z</time>
      </trkpt>
      <trkpt lat="45.19632" lon="5.56843">
        <ele>1114.2</ele>
        <time>2016-09-29T06:31:38.000Z</time>
      </trkpt>
      <trkpt lat="45.19693" lon="5.56867">
        <ele>1125.9</ele>
        <time>2016-09-29T06:31:56.000Z</time>
      </trkpt>
      <trkpt lat="45.19819" lon="5.56898">
        <ele>1128.4</ele>
        <time>2016-09-29T06:32:26.000Z</time>
      </trkpt>
      <trkpt lat="45.19928" lon="5.56959">
        <ele>1142.2</ele>
        <time>2016-09-29T06:32:56.000Z</time>
      </trkpt>
      <trkpt lat="45.20049" lon="5.57009">
        <ele>1144.5</ele>
        <time>2016-09-29T06:33:26.000Z</time>
      </trkpt>
      <trkpt lat="45.20157" lon="5.57085">
        <ele>1148</ele>
        <time>2016-09-29T06:33:59.000Z</time>
      </trkpt>
      <trkpt lat="45.20274" lon="5.57109">
        <ele>1148.7</ele>
        <time>2016-09-29T06:34:32.000Z</time>
      </trkpt>
      <trkpt lat="45.2045" lon="5.57244">
        <ele>1153.1</ele>
        <time>2016-09-29T06:35:26.000Z</time>
      </trkpt>
      <trkpt lat="45.20615" lon="5.57325">
        <ele>1153.8</ele>
        <time>2016-09-29T06:36:11.000Z</time>
      </trkpt>
      <trkpt lat="45.20675" lon="5.57347">
        <ele>1157.5</ele>
        <time>2016-09-29T06:36:32.000Z</time>
      </trkpt>
      <trkpt lat="45.20718" lon="5.5738">
        <ele>1162.4</ele>
        <time>2016-09-29T06:36:44.000Z</time>
      </trkpt>
      <trkpt lat="45.20894" lon="5.57467">
        <ele>1175.6</ele>
        <time>2016-09-29T06:37:50.000Z</time>
      </trkpt>
      <trkpt lat="45.20944" lon="5.575">
        <ele>1176.8</ele>
        <time>2016-09-29T06:38:11.000Z</time>
      </trkpt>
      <trkpt lat="45.2114" lon="5.57542">
        <ele>1170.8</ele>
        <time>2016-09-29T06:39:14.000Z</time>
      </trkpt>
      <trkpt lat="45.21262" lon="5.57584">
        <ele>1170</ele>
        <time>2016-09-29T06:39:56.000Z</time>
      </trkpt>
      <trkpt lat="45.2147" lon="5.57679">
        <ele>1198.1</ele>
        <time>2016-09-29T06:41:14.000Z</time>
      </trkpt>
      <trkpt lat="45.21553" lon="5.57735">
        <ele>1207.6</ele>
        <time>2016-09-29T06:41:50.000Z</time>
      </trkpt>
      <trkpt lat="45.21798" lon="5.57852">
        <ele>1217.7</ele>
        <time>2016-09-29T06:43:32.000Z</time>
      </trkpt>
      <trkpt lat="45.21926" lon="5.57884">
        <ele>1222.1</ele>
        <time>2016-09-29T06:44:20.000Z</time>
      </trkpt>
      <trkpt lat="45.2202" lon="5.57927">
        <ele>1240.5</ele>
        <time>2016-09-29T06:45:02.000Z</time>
      </trkpt>
      <trkpt lat="45.22155" lon="5.57956">
        <ele>1273.8</ele>
        <time>2016-09-29T06:45:56.000Z</time>
      </trkpt>
      <trkpt lat="45.22223" lon="5.57984">
        <ele>1321.7</ele>
        <time>2016-09-29T06:46:26.000Z</time>
      </trkpt>
      <trkpt lat="45.22405" lon="5.58012">
        <ele>1275.4</ele>
        <time>2016-09-29T06:47:44.000Z</time>
      </trkpt>
      <trkpt lat="45.22506" lon="5.58048">
        <ele>1271.6</ele>
        <time>2016-09-29T06:48:44.000Z</time>
      </trkpt>
      <trkpt lat="45.22624" lon="5.58063">
        <ele>1312.7</ele>
        <time>2016-09-29T06:49:50.000Z</time>
      </trkpt>
      <trkpt lat="45.22661" lon="5.5806">
        <ele>1304.3</ele>
        <time>2016-09-29T06:50:08.000Z</time>
      </trkpt>
      <trkpt lat="45.22686" lon="5.58047">
        <ele>1310.3</ele>
        <time>2016-09-29T06:50:26.000Z</time>
      </trkpt>
      <trkpt lat="45.22775" lon="5.58054">
        <ele>1294</ele>
        <time>2016-09-29T06:51:08.000Z</time>
      </trkpt>
      <trkpt lat="45.22853" lon="5.58093">
        <ele>1296.8</ele>
        <time>2016-09-29T06:51:59.000Z</time>
      </trkpt>
      <trkpt lat="45.22886" lon="5.58135">
        <ele>1300.6</ele>
        <time>2016-09-29T06:52:26.000Z</time>
      </trkpt>
      <trkpt lat="45.22911" lon="5.58152">
        <ele>1302.2</ele>
        <time>2016-09-29T06:52:41.000Z</time>
      </trkpt>
      <trkpt lat="45.22987" lon="5.58184">
        <ele>1325.1</ele>
        <time>2016-09-29T06:53:26.000Z</time>
      </trkpt>
      <trkpt lat="45.23022" lon="5.58187">
        <ele>1328</ele>
        <time>2016-09-29T06:53:50.000Z</time>
      </trkpt>
      <trkpt lat="45.23039" lon="5.58202">
        <ele>1332.1</ele>
        <time>2016-09-29T06:54:01.000Z</time>
      </trkpt>
      <trkpt lat="45.23047" lon="5.58234">
        <ele>1332.7</ele>
        <time>2016-09-29T06:54:16.000Z</time>
      </trkpt>
      <trkpt lat="45.23039" lon="5.58266">
        <ele>1337.6</ele>
        <time>2016-09-29T06:54:28.000Z</time>
      </trkpt>
      <trkpt lat="45.23018" lon="5.58279">
        <ele>1343.7</ele>
        <time>2016-09-29T06:54:46.000Z</time>
      </trkpt>
      <trkpt lat="45.22996" lon="5.5827">
        <ele>1348</ele>
        <time>2016-09-29T06:54:58.000Z</time>
      </trkpt>
      <trkpt lat="45.22967" lon="5.58278">
        <ele>1357.7</ele>
        <time>2016-09-29T06:55:19.000Z</time>
      </trkpt>
      <trkpt lat="45.22963" lon="5.58316">
        <ele>1365</ele>
        <time>2016-09-29T06:55:40.000Z</time>
      </trkpt>
      <trkpt lat="45.23001" lon="5.5836">
        <ele>1348.2</ele>
        <time>2016-09-29T06:56:01.000Z</time>
      </trkpt>
      <trkpt lat="45.23029" lon="5.58372">
        <ele>1345.7</ele>
        <time>2016-09-29T06:56:16.000Z</time>
      </trkpt>
      <trkpt lat="45.23088" lon="5.58358">
        <ele>1371.5</ele>
        <time>2016-09-29T06:56:58.000Z</time>
      </trkpt>
      <trkpt lat="45.23137" lon="5.58321">
        <ele>1391.2</ele>
        <time>2016-09-29T06:57:25.000Z</time>
      </trkpt>
      <trkpt lat="45.23164" lon="5.58318">
        <ele>1385.9</ele>
        <time>2016-09-29T06:57:34.000Z</time>
      </trkpt>
      <trkpt lat="45.23205" lon="5.58288">
        <ele>1397.7</ele>
        <time>2016-09-29T06:57:58.000Z</time>
      </trkpt>
      <trkpt lat="45.2326" lon="5.58302">
        <ele>1386.7</ele>
        <time>2016-09-29T06:58:28.000Z</time>
      </trkpt>
      <trkpt lat="45.23343" lon="5.58375">
        <ele>1352.7</ele>
        <time>2016-09-29T06:59:22.000Z</time>
      </trkpt>
      <trkpt lat="45.23391" lon="5.58401">
        <ele>1367.8</ele>
        <time>2016-09-29T06:59:46.000Z</time>
      </trkpt>
      <trkpt lat="45.23476" lon="5.58379">
        <ele>1407.2</ele>
        <time>2016-09-29T07:00:34.000Z</time>
      </trkpt>
      <trkpt lat="45.23562" lon="5.58343">
        <ele>1422.6</ele>
        <time>2016-09-29T07:01:22.000Z</time>
      </trkpt>
      <trkpt lat="45.23589" lon="5.58324">
        <ele>1434.2</ele>
        <time>2016-09-29T07:01:37.000Z</time>
      </trkpt>
      <trkpt lat="45.23684" lon="5.58222">
        <ele>1447.4</ele>
        <time>2016-09-29T07:02:46.000Z</time>
      </trkpt>
      <trkpt lat="45.23735" lon="5.5819">
        <ele>1463.4</ele>
        <time>2016-09-29T07:03:13.000Z</time>
      </trkpt>
      <trkpt lat="45.23744" lon="5.58155">
        <ele>1456.6</ele>
        <time>2016-09-29T07:03:25.000Z</time>
      </trkpt>
      <trkpt lat="45.23767" lon="5.58166">
        <ele>1397.2</ele>
        <time>2016-09-29T07:07:01.000Z</time>
      </trkpt>
      <trkpt lat="45.23826" lon="5.58262">
        <ele>1402.6</ele>
        <time>2016-09-29T07:08:21.000Z</time>
      </trkpt>
      <trkpt lat="45.23867" lon="5.58307">
        <ele>1403.2</ele>
        <time>2016-09-29T07:08:36.000Z</time>
      </trkpt>
      <trkpt lat="45.24154" lon="5.58862">
        <ele>1379.1</ele>
        <time>2016-09-29T07:09:33.000Z</time>
      </trkpt>
      <trkpt lat="45.24197" lon="5.58882">
        <ele>1389.7</ele>
        <time>2016-09-29T07:09:39.000Z</time>
      </trkpt>
      <trkpt lat="45.2429" lon="5.58838">
        <ele>1401.9</ele>
        <time>2016-09-29T07:09:51.000Z</time>
      </trkpt>
      <trkpt lat="45.24382" lon="5.58767">
        <ele>1402.2</ele>
        <time>2016-09-29T07:10:02.000Z</time>
      </trkpt>
      <trkpt lat="45.24445" lon="5.58729">
        <ele>1401.7</ele>
        <time>2016-09-29T07:10:08.000Z</time>
      </trkpt>
      <trkpt lat="45.24511" lon="5.58737">
        <ele>1400.5</ele>
        <time>2016-09-29T07:10:14.000Z</time>
      </trkpt>
      <trkpt lat="45.24575" lon="5.58779">
        <ele>1399.4</ele>
        <time>2016-09-29T07:10:20.000Z</time>
      </trkpt>
      <trkpt lat="45.24635" lon="5.58793">
        <ele>1398.4</ele>
        <time>2016-09-29T07:10:26.000Z</time>
      </trkpt>
      <trkpt lat="45.24691" lon="5.58795">
        <ele>1397.7</ele>
        <time>2016-09-29T07:10:32.000Z</time>
      </trkpt>
      <trkpt lat="45.2474" lon="5.58734">
        <ele>1395.8</ele>
        <time>2016-09-29T07:10:44.000Z</time>
      </trkpt>
      <trkpt lat="45.24751" lon="5.58682">
        <ele>1394.2</ele>
        <time>2016-09-29T07:10:53.000Z</time>
      </trkpt>
      <trkpt lat="45.24756" lon="5.58724">
        <ele>1391.7</ele>
        <time>2016-09-29T07:11:05.000Z</time>
      </trkpt>
      <trkpt lat="45.24728" lon="5.58807">
        <ele>1389.4</ele>
        <time>2016-09-29T07:11:26.000Z</time>
      </trkpt>
      <trkpt lat="45.24701" lon="5.58952">
        <ele>1388.1</ele>
        <time>2016-09-29T07:11:50.000Z</time>
      </trkpt>
      <trkpt lat="45.24682" lon="5.58982">
        <ele>1387.9</ele>
        <time>2016-09-29T07:11:56.000Z</time>
      </trkpt>
      <trkpt lat="45.24625" lon="5.58949">
        <ele>1387.6</ele>
        <time>2016-09-29T07:12:14.000Z</time>
      </trkpt>
      <trkpt lat="45.24479" lon="5.58987">
        <ele>1319.4</ele>
        <time>2016-09-29T07:13:32.000Z</time>
      </trkpt>
      <trkpt lat="45.24492" lon="5.59028">
        <ele>1381.9</ele>
        <time>2016-09-29T07:13:44.000Z</time>
      </trkpt>
      <trkpt lat="45.24476" lon="5.59065">
        <ele>1383</ele>
        <time>2016-09-29T07:13:47.000Z</time>
      </trkpt>
      <trkpt lat="45.24432" lon="5.59116">
        <ele>1382.4</ele>
        <time>2016-09-29T07:13:56.000Z</time>
      </trkpt>
      <trkpt lat="45.24426" lon="5.59163">
        <ele>1374.8</ele>
        <time>2016-09-29T07:14:02.000Z</time>
      </trkpt>
      <trkpt lat="45.24379" lon="5.5919">
        <ele>1361.6</ele>
        <time>2016-09-29T07:15:08.000Z</time>
      </trkpt>
      <trkpt lat="45.2428" lon="5.59286">
        <ele>1361.1</ele>
        <time>2016-09-29T07:16:11.000Z</time>
      </trkpt>
      <trkpt lat="45.24185" lon="5.59412">
        <ele>1360.9</ele>
        <time>2016-09-29T07:16:32.000Z</time>
      </trkpt>
      <trkpt lat="45.23882" lon="5.59549">
        <ele>1375.1</ele>
        <time>2016-09-29T07:19:14.000Z</time>
      </trkpt>
      <trkpt lat="45.23903" lon="5.59644">
        <ele>1334.7</ele>
        <time>2016-09-29T07:20:14.000Z</time>
      </trkpt>
      <trkpt lat="45.23954" lon="5.59759">
        <ele>1302.2</ele>
        <time>2016-09-29T07:21:29.000Z</time>
      </trkpt>
      <trkpt lat="45.23957" lon="5.59803">
        <ele>1293.8</ele>
        <time>2016-09-29T07:21:50.000Z</time>
      </trkpt>
      <trkpt lat="45.2394" lon="5.5983">
        <ele>1289.3</ele>
        <time>2016-09-29T07:22:02.000Z</time>
      </trkpt>
      <trkpt lat="45.23934" lon="5.5987">
        <ele>1281.4</ele>
        <time>2016-09-29T07:22:23.000Z</time>
      </trkpt>
      <trkpt lat="45.23943" lon="5.59905">
        <ele>1277.6</ele>
        <time>2016-09-29T07:22:32.000Z</time>
      </trkpt>
      <trkpt lat="45.23941" lon="5.60037">
        <ele>1243.8</ele>
        <time>2016-09-29T07:23:26.000Z</time>
      </trkpt>
      <trkpt lat="45.23744" lon="5.60403">
        <ele>1223.3</ele>
        <time>2016-09-29T07:24:56.000Z</time>
      </trkpt>
      <trkpt lat="45.23811" lon="5.61044">
        <ele>1226.4</ele>
        <time>2016-09-29T07:28:11.000Z</time>
      </trkpt>
      <trkpt lat="45.2378" lon="5.61061">
        <ele>1228.4</ele>
        <time>2016-09-29T07:28:17.000Z</time>
      </trkpt>
      <trkpt lat="45.2373" lon="5.61067">
        <ele>1216.5</ele>
        <time>2016-09-29T07:28:26.000Z</time>
      </trkpt>
      <trkpt lat="45.23714" lon="5.61105">
        <ele>1195.6</ele>
        <time>2016-09-29T07:28:32.000Z</time>
      </trkpt>
      <trkpt lat="45.23708" lon="5.61263">
        <ele>1104.5</ele>
        <time>2016-09-29T07:28:38.000Z</time>
      </trkpt>
      <trkpt lat="45.23688" lon="5.61324">
        <ele>1072.5</ele>
        <time>2016-09-29T07:28:44.000Z</time>
      </trkpt>
      <trkpt lat="45.23702" lon="5.61362">
        <ele>985.9</ele>
        <time>2016-09-29T07:28:59.000Z</time>
      </trkpt>
      <trkpt lat="45.23694" lon="5.61404">
        <ele>969.9</ele>
        <time>2016-09-29T07:29:38.000Z</time>
      </trkpt>
      <trkpt lat="45.23657" lon="5.61507">
        <ele>965.3</ele>
        <time>2016-09-29T07:29:59.000Z</time>
      </trkpt>
      <trkpt lat="45.2348" lon="5.61515">
        <ele>950.4</ele>
        <time>2016-09-29T07:30:38.000Z</time>
      </trkpt>
      <trkpt lat="45.23448" lon="5.61574">
        <ele>965.5</ele>
        <time>2016-09-29T07:30:56.000Z</time>
      </trkpt>
      <trkpt lat="45.23412" lon="5.61577">
        <ele>968</ele>
        <time>2016-09-29T07:31:14.000Z</time>
      </trkpt>
      <trkpt lat="45.23391" lon="5.61562">
        <ele>968.1</ele>
        <time>2016-09-29T07:31:20.000Z</time>
      </trkpt>
      <trkpt lat="45.23373" lon="5.6158">
        <ele>968.4</ele>
        <time>2016-09-29T07:31:26.000Z</time>
      </trkpt>
      <trkpt lat="45.23356" lon="5.6166">
        <ele>967.7</ele>
        <time>2016-09-29T07:31:38.000Z</time>
      </trkpt>
      <trkpt lat="45.23345" lon="5.61685">
        <ele>968.3</ele>
        <time>2016-09-29T07:31:44.000Z</time>
      </trkpt>
      <trkpt lat="45.23322" lon="5.61705">
        <ele>967.7</ele>
        <time>2016-09-29T07:31:50.000Z</time>
      </trkpt>
      <trkpt lat="45.23327" lon="5.61888">
        <ele>960.7</ele>
        <time>2016-09-29T07:32:14.000Z</time>
      </trkpt>
      <trkpt lat="45.23359" lon="5.61955">
        <ele>957.5</ele>
        <time>2016-09-29T07:32:20.000Z</time>
      </trkpt>
      <trkpt lat="45.23385" lon="5.61973">
        <ele>955.8</ele>
        <time>2016-09-29T07:32:23.000Z</time>
      </trkpt>
      <trkpt lat="45.23623" lon="5.62024">
        <ele>891.9</ele>
        <time>2016-09-29T07:33:02.000Z</time>
      </trkpt>
      <trkpt lat="45.23634" lon="5.62047">
        <ele>879.3</ele>
        <time>2016-09-29T07:33:08.000Z</time>
      </trkpt>
      <trkpt lat="45.23633" lon="5.62131">
        <ele>778.6</ele>
        <time>2016-09-29T07:34:02.000Z</time>
      </trkpt>
      <trkpt lat="45.23619" lon="5.62157">
        <ele>762.6</ele>
        <time>2016-09-29T07:34:20.000Z</time>
      </trkpt>
      <trkpt lat="45.23598" lon="5.62179">
        <ele>758.2</ele>
        <time>2016-09-29T07:34:32.000Z</time>
      </trkpt>
      <trkpt lat="45.23574" lon="5.62186">
        <ele>756.1</ele>
        <time>2016-09-29T07:34:44.000Z</time>
      </trkpt>
      <trkpt lat="45.23522" lon="5.62169">
        <ele>756</ele>
        <time>2016-09-29T07:34:56.000Z</time>
      </trkpt>
      <trkpt lat="45.2349" lon="5.62218">
        <ele>753.2</ele>
        <time>2016-09-29T07:35:02.000Z</time>
      </trkpt>
      <trkpt lat="45.2348" lon="5.62303">
        <ele>747.6</ele>
        <time>2016-09-29T07:35:14.000Z</time>
      </trkpt>
      <trkpt lat="45.23517" lon="5.62374">
        <ele>733.6</ele>
        <time>2016-09-29T07:35:32.000Z</time>
      </trkpt>
      <trkpt lat="45.23506" lon="5.62412">
        <ele>727.5</ele>
        <time>2016-09-29T07:35:44.000Z</time>
      </trkpt>
      <trkpt lat="45.2348" lon="5.62452">
        <ele>730.9</ele>
        <time>2016-09-29T07:35:59.000Z</time>
      </trkpt>
      <trkpt lat="45.23415" lon="5.62479">
        <ele>727.1</ele>
        <time>2016-09-29T07:36:08.000Z</time>
      </trkpt>
      <trkpt lat="45.23397" lon="5.62465">
        <ele>724.6</ele>
        <time>2016-09-29T07:36:14.000Z</time>
      </trkpt>
      <trkpt lat="45.23351" lon="5.62403">
        <ele>718.9</ele>
        <time>2016-09-29T07:36:32.000Z</time>
      </trkpt>
      <trkpt lat="45.23372" lon="5.62628">
        <ele>565</ele>
        <time>2016-09-29T07:39:23.000Z</time>
      </trkpt>
      <trkpt lat="45.23352" lon="5.6264">
        <ele>454.3</ele>
        <time>2016-09-29T07:39:50.000Z</time>
      </trkpt>
      <trkpt lat="45.23365" lon="5.62661">
        <ele>443.3</ele>
        <time>2016-09-29T07:40:08.000Z</time>
      </trkpt>
      <trkpt lat="45.2337" lon="5.627">
        <ele>431.3</ele>
        <time>2016-09-29T07:40:26.000Z</time>
      </trkpt>
      <trkpt lat="45.23383" lon="5.62723">
        <ele>421.9</ele>
        <time>2016-09-29T07:40:44.000Z</time>
      </trkpt>
      <trkpt lat="45.23409" lon="5.62739">
        <ele>412.7</ele>
        <time>2016-09-29T07:41:05.000Z</time>
      </trkpt>
      <trkpt lat="45.23435" lon="5.62735">
        <ele>408.7</ele>
        <time>2016-09-29T07:41:17.000Z</time>
      </trkpt>
      <trkpt lat="45.23462" lon="5.62746">
        <ele>401.1</ele>
        <time>2016-09-29T07:41:50.000Z</time>
      </trkpt>
      <trkpt lat="45.23473" lon="5.6277">
        <ele>395.1</ele>
        <time>2016-09-29T07:42:08.000Z</time>
      </trkpt>
      <trkpt lat="45.23505" lon="5.62786">
        <ele>392</ele>
        <time>2016-09-29T07:42:26.000Z</time>
      </trkpt>
      <trkpt lat="45.2351" lon="5.62819">
        <ele>388.4</ele>
        <time>2016-09-29T07:42:44.000Z</time>
      </trkpt>
      <trkpt lat="45.23539" lon="5.6287">
        <ele>379.7</ele>
        <time>2016-09-29T07:43:26.000Z</time>
      </trkpt>
      <trkpt lat="45.23566" lon="5.62888">
        <ele>373.1</ele>
        <time>2016-09-29T07:43:44.000Z</time>
      </trkpt>
      <trkpt lat="45.23577" lon="5.62914">
        <ele>366.5</ele>
        <time>2016-09-29T07:44:02.000Z</time>
      </trkpt>
      <trkpt lat="45.23606" lon="5.62938">
        <ele>360.3</ele>
        <time>2016-09-29T07:44:20.000Z</time>
      </trkpt>
      <trkpt lat="45.23621" lon="5.62966">
        <ele>355.8</ele>
        <time>2016-09-29T07:44:38.000Z</time>
      </trkpt>
      <trkpt lat="45.23628" lon="5.63003">
        <ele>351.2</ele>
        <time>2016-09-29T07:44:56.000Z</time>
      </trkpt>
      <trkpt lat="45.23703" lon="5.63094">
        <ele>339.7</ele>
        <time>2016-09-29T07:45:20.000Z</time>
      </trkpt>
      <trkpt lat="45.23743" lon="5.63167">
        <ele>329</ele>
        <time>2016-09-29T07:45:32.000Z</time>
      </trkpt>
      <trkpt lat="45.23748" lon="5.63219">
        <ele>313.7</ele>
        <time>2016-09-29T07:45:44.000Z</time>
      </trkpt>
      <trkpt lat="45.23772" lon="5.63328">
        <ele>287.3</ele>
        <time>2016-09-29T07:46:02.000Z</time>
      </trkpt>
      <trkpt lat="45.23878" lon="5.63364">
        <ele>270.3</ele>
        <time>2016-09-29T07:46:14.000Z</time>
      </trkpt>
      <trkpt lat="45.23906" lon="5.63388">
        <ele>264.9</ele>
        <time>2016-09-29T07:46:20.000Z</time>
      </trkpt>
      <trkpt lat="45.23885" lon="5.6343">
        <ele>254.1</ele>
        <time>2016-09-29T07:46:32.000Z</time>
      </trkpt>
      <trkpt lat="45.23766" lon="5.63579">
        <ele>229.8</ele>
        <time>2016-09-29T07:52:38.000Z</time>
      </trkpt>
      <trkpt lat="45.2368" lon="5.63739">
        <ele>227.6</ele>
        <time>2016-09-29T07:53:08.000Z</time>
      </trkpt>
      <trkpt lat="45.23674" lon="5.63798">
        <ele>225.6</ele>
        <time>2016-09-29T07:53:20.000Z</time>
      </trkpt>
      <trkpt lat="45.23777" lon="5.63998">
        <ele>219.5</ele>
        <time>2016-09-29T07:53:56.000Z</time>
      </trkpt>
      <trkpt lat="45.23741" lon="5.64041">
        <ele>212.1</ele>
        <time>2016-09-29T07:54:08.000Z</time>
      </trkpt>
      <trkpt lat="45.23648" lon="5.64126">
        <ele>204.6</ele>
        <time>2016-09-29T07:54:32.000Z</time>
      </trkpt>
      <trkpt lat="45.23631" lon="5.64153">
        <ele>203.9</ele>
        <time>2016-09-29T07:54:38.000Z</time>
      </trkpt>
      <trkpt lat="45.23677" lon="5.64262">
        <ele>198.6</ele>
        <time>2016-09-29T07:54:59.000Z</time>
      </trkpt>
      <trkpt lat="45.23741" lon="5.64385">
        <ele>199.7</ele>
        <time>2016-09-29T07:55:20.000Z</time>
      </trkpt>
      <trkpt lat="45.23782" lon="5.64451">
        <ele>201</ele>
        <time>2016-09-29T07:55:32.000Z</time>
      </trkpt>
      <trkpt lat="45.2378" lon="5.64488">
        <ele>198.4</ele>
        <time>2016-09-29T07:55:38.000Z</time>
      </trkpt>
      <trkpt lat="45.23734" lon="5.64648">
        <ele>200.9</ele>
        <time>2016-09-29T07:56:02.000Z</time>
      </trkpt>
      <trkpt lat="45.23485" lon="5.65006">
        <ele>208.4</ele>
        <time>2016-09-29T07:57:20.000Z</time>
      </trkpt>
      <trkpt lat="45.2343" lon="5.65074">
        <ele>206.7</ele>
        <time>2016-09-29T07:57:38.000Z</time>
      </trkpt>
      <trkpt lat="45.23441" lon="5.65174">
        <ele>207.9</ele>
        <time>2016-09-29T07:57:56.000Z</time>
      </trkpt>
      <trkpt lat="45.23471" lon="5.65335">
        <ele>210.1</ele>
        <time>2016-09-29T07:58:20.000Z</time>
      </trkpt>
      <trkpt lat="45.2349" lon="5.6543">
        <ele>210.7</ele>
        <time>2016-09-29T07:58:32.000Z</time>
      </trkpt>
      <trkpt lat="45.23511" lon="5.65489">
        <ele>210.7</ele>
        <time>2016-09-29T07:58:38.000Z</time>
      </trkpt>
      <trkpt lat="45.23531" lon="5.6568">
        <ele>207.1</ele>
        <time>2016-09-29T07:59:14.000Z</time>
      </trkpt>
      <trkpt lat="45.23389" lon="5.65847">
        <ele>209.2</ele>
        <time>2016-09-29T07:59:50.000Z</time>
      </trkpt>
      <trkpt lat="45.23361" lon="5.65849">
        <ele>209.4</ele>
        <time>2016-09-29T07:59:56.000Z</time>
      </trkpt>
      <trkpt lat="45.23179" lon="5.65995">
        <ele>203.4</ele>
        <time>2016-09-29T08:00:44.000Z</time>
      </trkpt>
      <trkpt lat="45.22435" lon="5.66539">
        <ele>216.2</ele>
        <time>2016-09-29T08:03:20.000Z</time>
      </trkpt>
      <trkpt lat="45.22281" lon="5.66641">
        <ele>211.7</ele>
        <time>2016-09-29T08:03:56.000Z</time>
      </trkpt>
      <trkpt lat="45.22128" lon="5.66765">
        <ele>214.2</ele>
        <time>2016-09-29T08:04:26.000Z</time>
      </trkpt>
      <trkpt lat="45.21774" lon="5.67018">
        <ele>215.1</ele>
        <time>2016-09-29T08:05:38.000Z</time>
      </trkpt>
      <trkpt lat="45.21681" lon="5.67112">
        <ele>217.4</ele>
        <time>2016-09-29T08:05:56.000Z</time>
      </trkpt>
      <trkpt lat="45.21464" lon="5.67398">
        <ele>254.2</ele>
        <time>2016-09-29T08:06:44.000Z</time>
      </trkpt>
      <trkpt lat="45.21252" lon="5.67658">
        <ele>277.2</ele>
        <time>2016-09-29T08:07:32.000Z</time>
      </trkpt>
      <trkpt lat="45.20891" lon="5.68182">
        <ele>267.1</ele>
        <time>2016-09-29T08:09:02.000Z</time>
      </trkpt>
      <trkpt lat="45.20804" lon="5.68294">
        <ele>257.9</ele>
        <time>2016-09-29T08:09:20.000Z</time>
      </trkpt>
      <trkpt lat="45.20771" lon="5.68314">
        <ele>253</ele>
        <time>2016-09-29T08:09:29.000Z</time>
      </trkpt>
      <trkpt lat="45.2076" lon="5.68343">
        <ele>233.2</ele>
        <time>2016-09-29T08:09:38.000Z</time>
      </trkpt>
      <trkpt lat="45.20779" lon="5.68375">
        <ele>227.1</ele>
        <time>2016-09-29T08:09:44.000Z</time>
      </trkpt>
      <trkpt lat="45.20872" lon="5.68505">
        <ele>216</ele>
        <time>2016-09-29T08:10:08.000Z</time>
      </trkpt>
      <trkpt lat="45.20899" lon="5.68528">
        <ele>215.5</ele>
        <time>2016-09-29T08:10:14.000Z</time>
      </trkpt>
      <trkpt lat="45.20972" lon="5.68491">
        <ele>217.6</ele>
        <time>2016-09-29T08:10:26.000Z</time>
      </trkpt>
      <trkpt lat="45.21046" lon="5.68435">
        <ele>219.5</ele>
        <time>2016-09-29T08:10:38.000Z</time>
      </trkpt>
      <trkpt lat="45.21088" lon="5.68425">
        <ele>218.9</ele>
        <time>2016-09-29T08:10:44.000Z</time>
      </trkpt>
      <trkpt lat="45.2113" lon="5.68447">
        <ele>217.7</ele>
        <time>2016-09-29T08:10:50.000Z</time>
      </trkpt>
      <trkpt lat="45.21128" lon="5.68507">
        <ele>216.4</ele>
        <time>2016-09-29T08:10:56.000Z</time>
      </trkpt>
      <trkpt lat="45.21067" lon="5.68749">
        <ele>210.2</ele>
        <time>2016-09-29T08:11:26.000Z</time>
      </trkpt>
      <trkpt lat="45.21026" lon="5.6897">
        <ele>211.4</ele>
        <time>2016-09-29T08:11:56.000Z</time>
      </trkpt>
      <trkpt lat="45.20977" lon="5.6936">
        <ele>222.1</ele>
        <time>2016-09-29T08:12:44.000Z</time>
      </trkpt>
      <trkpt lat="45.20939" lon="5.69474">
        <ele>225.1</ele>
        <time>2016-09-29T08:13:02.000Z</time>
      </trkpt>
      <trkpt lat="45.20915" lon="5.69522">
        <ele>221.5</ele>
        <time>2016-09-29T08:13:08.000Z</time>
      </trkpt>
      <trkpt lat="45.20852" lon="5.69601">
        <ele>222.6</ele>
        <time>2016-09-29T08:13:20.000Z</time>
      </trkpt>
      <trkpt lat="45.208" lon="5.69642">
        <ele>222.5</ele>
        <time>2016-09-29T08:13:32.000Z</time>
      </trkpt>
      <trkpt lat="45.20748" lon="5.69727">
        <ele>222</ele>
        <time>2016-09-29T08:13:50.000Z</time>
      </trkpt>
      <trkpt lat="45.20604" lon="5.69895">
        <ele>222.2</ele>
        <time>2016-09-29T08:14:23.000Z</time>
      </trkpt>
    </trkseg>
  </trk>
</gpx>